Time;durP1;ratioP1;P1;durP2;ratioP2;P2;SDS_P1;SDS_P2;PMS_P1;PMS_P2;Temp;Humidity;BMP_temperature;BMP_pressure;BME280_temperature;BME280_humidity;BME280_pressure;Samples;Min_cycle;Max_cycle;Signal;HPM_P1;HPM_P2
2022/08/13 00:01:40;;;;;;;5.85;3.20;;;;;;;22.10;40.68;101518.66;5290067;28;20024;-68
2022/08/13 00:04:14;;;;;;;11.10;3.40;;;;;;;21.93;40.88;101518.50;5274302;28;20105;-68
2022/08/13 00:07:03;;;;;;;;;;;;;;;22.61;38.48;101528.75;5274055;28;20093;-68
2022/08/13 00:09:38;;;;;;;5.70;3.07;;;;;;;21.95;40.56;101511.19;5274225;28;19958;-68
2022/08/13 00:15:12;;;;;;;5.73;2.60;;;;;;;21.90;40.68;101525.97;5274110;28;20052;-67
2022/08/13 00:17:45;;;;;;;8.32;2.90;;;;;;;21.79;41.29;101517.19;5273826;28;20044;-70
2022/08/13 00:20:23;;;;;;;4.10;2.70;;;;;;;21.80;41.37;101518.84;5273452;28;20028;-69
2022/08/13 00:22:56;;;;;;;6.90;2.97;;;;;;;21.69;41.13;101527.03;5273328;28;20036;-68
2022/08/13 00:25:28;;;;;;;4.85;2.70;;;;;;;21.72;40.95;101522.25;5273212;28;20032;-68
2022/08/13 00:28:02;;;;;;;8.63;2.93;;;;;;;21.52;41.38;101527.69;5271448;28;20119;-68
2022/08/13 00:30:35;;;;;;;5.60;2.90;;;;;;;21.51;41.96;101526.00;5272628;28;20256;-68
2022/08/13 00:33:12;;;;;;;4.78;2.63;;;;;;;21.41;42.01;101530.56;5273319;28;20397;-68
2022/08/13 00:35:47;;;;;;;4.80;2.77;;;;;;;21.26;42.04;101517.69;5271375;28;20455;-69
2022/08/13 00:38:23;;;;;;;6.03;3.57;;;;;;;21.44;41.97;101522.25;5273369;28;20035;-68
2022/08/13 00:40:58;;;;;;;3.83;2.53;;;;;;;21.24;42.26;101518.84;5273557;28;20070;-68
2022/08/13 00:43:33;;;;;;;9.43;3.10;;;;;;;21.20;43.17;101522.78;5273417;28;20021;-68
2022/08/13 00:46:04;;;;;;;8.37;3.57;;;;;;;21.12;42.67;101521.69;5273352;28;20032;-69
2022/08/13 00:48:42;;;;;;;8.27;2.97;;;;;;;21.18;42.74;101519.41;5273374;28;20025;-69
2022/08/13 00:51:15;;;;;;;7.37;2.70;;;;;;;21.14;42.90;101518.88;5272075;28;20339;-71
2022/08/13 00:53:46;;;;;;;8.30;3.10;;;;;;;21.11;42.62;101529.81;5273409;28;20048;-69
2022/08/13 00:56:17;;;;;;;9.33;2.53;;;;;;;21.13;43.09;101526.03;5272562;28;20027;-70
2022/08/13 00:58:50;;;;;;;7.07;3.07;;;;;;;21.09;43.00;101529.13;5271862;28;20025;-69
2022/08/13 01:01:25;;;;;;;9.03;3.63;;;;;;;21.04;42.88;101526.91;5272796;28;20560;-66
2022/08/13 01:03:57;;;;;;;9.17;4.90;;;;;;;20.86;43.75;101532.94;5273174;28;20644;-67
2022/08/13 01:06:30;;;;;;;7.37;4.40;;;;;;;20.85;43.76;101533.06;5271894;28;20025;-67
2022/08/13 01:09:04;;;;;;;6.77;4.17;;;;;;;20.79;43.68;101532.66;5273165;28;20072;-67
2022/08/13 01:11:37;;;;;;;10.32;2.78;;;;;;;20.80;43.65;101534.34;5271925;28;20039;-68
2022/08/13 01:14:09;;;;;;;6.45;3.03;;;;;;;20.75;43.80;101535.78;5273164;28;20032;-68
2022/08/13 01:16:41;;;;;;;6.50;2.90;;;;;;;20.68;43.85;101532.84;5272446;28;20528;-68
2022/08/13 01:19:12;;;;;;;6.90;2.70;;;;;;;20.63;44.15;101530.59;5272760;28;20032;-67
2022/08/13 01:21:44;;;;;;;5.97;3.40;;;;;;;20.64;44.07;101524.31;5270985;28;20025;-68
2022/08/13 01:24:15;;;;;;;9.57;6.10;;;;;;;20.63;44.54;101529.75;5272634;28;20032;-68
2022/08/13 01:26:48;;;;;;;9.53;3.60;;;;;;;20.64;44.51;101536.75;5272775;28;20028;-68
2022/08/13 01:29:20;;;;;;;15.77;3.93;;;;;;;20.51;44.35;101537.06;5272450;28;20043;-67
2022/08/13 01:31:52;;;;;;;7.60;3.13;;;;;;;20.58;44.53;101540.00;5272032;28;20036;-68
2022/08/13 01:34:25;;;;;;;5.90;3.40;;;;;;;20.38;44.58;101529.34;5272501;28;20377;-68
2022/08/13 01:36:57;;;;;;;7.00;3.13;;;;;;;20.41;45.34;101535.25;5271544;28;20024;-67
2022/08/13 01:39:29;;;;;;;7.37;3.40;;;;;;;20.21;45.47;101534.41;5287482;28;20047;-68
2022/08/13 01:42:01;;;;;;;5.47;2.97;;;;;;;20.34;45.25;101534.09;5270892;28;20028;-68
2022/08/13 01:44:33;;;;;;;7.90;2.90;;;;;;;20.31;45.39;101527.25;5272414;28;20036;-68
2022/08/13 01:52:47;;;;;;;6.63;3.30;;;;;;;20.07;45.74;101533.00;5272291;28;20037;-68
2022/08/13 01:55:19;;;;;;;5.55;2.50;;;;;;;20.15;45.94;101525.16;5271545;28;20043;-68
2022/08/13 01:57:53;;;;;;;6.53;3.50;;;;;;;20.09;46.16;101527.53;5272055;28;20028;-68
2022/08/13 02:00:24;;;;;;;5.38;3.20;;;;;;;20.07;46.60;101533.81;5271723;28;20582;-68
2022/08/13 02:02:57;;;;;;;6.53;3.07;;;;;;;19.87;46.48;101532.91;5272295;28;20033;-68
2022/08/13 02:05:29;;;;;;;6.57;3.00;;;;;;;19.98;46.44;101517.81;5270630;28;20486;-68
2022/08/13 02:08:03;;;;;;;7.47;3.67;;;;;;;20.04;46.23;101526.13;5270496;28;20016;-68
2022/08/13 02:10:36;;;;;;;;;;;;;;;20.52;43.90;101526.28;5272399;28;20039;-68
2022/08/13 02:13:11;;;;;;;7.30;3.40;;;;;;;19.99;46.28;101523.00;5271722;28;20440;-68
2022/08/13 02:15:46;;;;;;;5.60;3.43;;;;;;;19.82;46.55;101524.50;5271332;28;20035;-68
2022/08/13 02:18:21;;;;;;;10.17;3.20;;;;;;;19.79;46.62;101528.25;5271727;28;20036;-68
2022/08/13 02:20:58;;;;;;;5.87;3.20;;;;;;;19.64;47.13;101526.97;5270862;28;20109;-68
2022/08/13 02:23:32;;;;;;;4.17;2.80;;;;;;;19.61;47.72;101521.94;5271486;28;20035;-68
2022/08/13 02:26:05;;;;;;;5.65;3.38;;;;;;;19.58;47.24;101523.88;5271623;28;20070;-68
2022/08/13 02:28:39;;;;;;;9.40;3.37;;;;;;;19.70;46.88;101521.13;5271387;28;20028;-68
2022/08/13 02:31:12;;;;;;;6.60;3.65;;;;;;;19.46;47.71;101520.50;5270712;28;20365;-68
2022/08/13 02:33:44;;;;;;;13.15;3.70;;;;;;;19.54;47.34;101516.31;5268973;28;20086;-68
2022/08/13 02:36:21;;;;;;;5.97;3.10;;;;;;;19.53;47.40;101523.44;5269657;28;20690;-68
2022/08/13 02:39:03;;;;;;;7.00;3.20;;;;;;;19.76;46.75;101520.56;5271244;28;20025;-68
2022/08/13 02:41:38;;;;;;;9.37;3.67;;;;;;;19.59;47.20;101517.59;5269576;28;20021;-67
2022/08/13 02:44:13;;;;;;;10.17;3.40;;;;;;;19.43;47.69;101525.22;5271872;28;20028;-68
2022/08/13 02:46:49;;;;;;;11.97;3.67;;;;;;;19.41;47.75;101525.38;5271216;28;20025;-68
2022/08/13 02:49:21;;;;;;;11.43;3.67;;;;;;;19.30;48.22;101526.31;5271138;28;20048;-68
2022/08/13 02:51:52;;;;;;;8.00;3.80;;;;;;;19.40;47.56;101522.84;5269999;28;20067;-67
2022/08/13 02:54:25;;;;;;;8.90;3.17;;;;;;;19.23;47.99;101525.97;5271337;28;20031;-68
2022/08/13 02:56:56;;;;;;;7.40;3.30;;;;;;;19.26;48.17;101527.53;5271274;28;20370;-68
2022/08/13 02:59:27;;;;;;;9.00;3.70;;;;;;;19.16;48.26;101518.69;5271106;28;20085;-68
2022/08/13 03:02:00;;;;;;;7.23;3.90;;;;;;;19.16;48.56;101529.31;5270954;28;20032;-68
2022/08/13 03:04:32;;;;;;;7.33;3.63;;;;;;;19.16;48.29;101526.66;5271301;28;20028;-68
2022/08/13 03:07:04;;;;;;;6.07;3.20;;;;;;;18.92;48.51;101512.66;5270337;28;20495;-67
2022/08/13 03:09:36;;;;;;;6.27;3.43;;;;;;;19.03;48.65;101519.72;5270956;28;20082;-67
2022/08/13 03:12:09;;;;;;;9.03;3.20;;;;;;;19.03;48.97;101527.69;5270895;28;20051;-67
2022/08/13 03:14:41;;;;;;;7.87;4.17;;;;;;;19.06;48.76;101523.94;5270829;28;20028;-67
2022/08/13 03:17:13;;;;;;;5.23;3.20;;;;;;;18.82;49.42;101525.03;5271088;28;20032;-67
2022/08/13 03:19:44;;;;;;;13.00;3.37;;;;;;;18.85;49.47;101522.97;5270255;28;20189;-68
2022/08/13 03:22:15;;;;;;;13.23;4.13;;;;;;;18.96;48.78;101523.84;5269785;28;20020;-68
2022/08/13 03:24:47;;;;;;;4.60;3.43;;;;;;;18.88;48.86;101519.22;5271023;28;20021;-68
2022/08/13 03:27:18;;;;;;;9.33;3.50;;;;;;;18.83;49.56;101532.03;5270602;28;20017;-68
2022/08/13 03:29:53;;;;;;;7.50;3.50;;;;;;;18.78;49.61;101526.28;5271152;28;20027;-68
2022/08/13 03:32:24;;;;;;;5.13;3.60;;;;;;;18.65;49.93;101531.75;5270354;28;20025;-68
2022/08/13 03:34:56;;;;;;;7.73;3.70;;;;;;;18.67;50.21;101521.88;5270267;28;20027;-68
2022/08/13 03:37:28;;;;;;;7.03;3.30;;;;;;;18.65;49.74;101526.47;5270832;28;20103;-68
2022/08/13 03:39:59;;;;;;;7.87;3.43;;;;;;;18.77;49.91;101530.72;5270763;28;20056;-68
2022/08/13 03:42:30;;;;;;;12.27;4.03;;;;;;;18.67;49.99;101525.38;5271068;28;20031;-68
2022/08/13 03:45:03;;;;;;;5.73;3.50;;;;;;;18.52;50.81;101527.47;5270681;28;20035;-68
2022/08/13 03:47:35;;;;;;;9.80;3.70;;;;;;;18.59;50.37;101526.00;5269799;28;20269;-68
2022/08/13 03:50:08;;;;;;;12.80;3.90;;;;;;;18.54;50.66;101525.53;5269224;28;20052;-68
2022/08/13 03:52:41;;;;;;;7.13;3.90;;;;;;;18.45;50.66;101532.44;5270713;28;20024;-68
2022/08/13 03:55:13;;;;;;;8.43;3.60;;;;;;;18.45;50.69;101521.03;5270019;28;20546;-68
2022/08/13 03:57:45;;;;;;;11.90;4.23;;;;;;;18.47;50.45;101522.56;5269041;28;20070;-68
2022/08/13 04:00:16;;;;;;;8.30;3.60;;;;;;;18.47;50.45;101517.25;5269406;28;20122;-67
2022/08/13 04:02:48;;;;;;;6.63;3.67;;;;;;;18.38;50.84;101521.53;5272811;28;20036;-67
2022/08/13 04:05:19;;;;;;;5.73;4.27;;;;;;;18.40;50.90;101517.91;5272212;28;20474;-68
2022/08/13 04:07:51;;;;;;;11.00;3.93;;;;;;;18.45;50.49;101521.03;5274627;28;20040;-68
2022/08/13 04:10:22;;;;;;;7.80;4.10;;;;;;;18.37;50.77;101519.84;5273859;28;20063;-68
2022/08/13 04:12:54;;;;;;;7.10;3.60;;;;;;;18.33;50.87;101517.56;5274418;28;20197;-67
2022/08/13 04:15:25;;;;;;;9.43;3.93;;;;;;;18.30;51.22;101518.66;5273857;28;20075;-67
2022/08/13 04:17:57;;;;;;;6.70;3.50;;;;;;;18.41;50.82;101523.09;5274099;28;20086;-68
2022/08/13 04:20:28;;;;;;;12.63;3.77;;;;;;;18.40;50.60;101523.22;5272660;28;20036;-67
2022/08/13 04:22:59;;;;;;;8.70;3.90;;;;;;;18.30;51.19;101529.28;5274078;28;20077;-68
2022/08/13 04:25:31;;;;;;;6.67;3.70;;;;;;;18.10;51.59;101529.06;5273117;28;20032;-68
2022/08/13 04:28:04;;;;;;;7.13;4.30;;;;;;;18.11;51.37;101524.59;5272300;28;20064;-68
2022/08/13 04:30:38;;;;;;;7.83;3.93;;;;;;;18.14;51.42;101522.56;5272127;28;20020;-68
2022/08/13 04:33:14;;;;;;;10.25;4.03;;;;;;;18.18;51.29;101528.47;5272129;28;20025;-68
2022/08/13 04:35:46;;;;;;;6.67;3.37;;;;;;;18.09;51.67;101537.13;5271867;28;20032;-69
2022/08/13 04:38:17;;;;;;;7.60;3.73;;;;;;;17.96;52.07;101527.53;5271197;28;20029;-69
2022/08/13 04:40:51;;;;;;;8.60;4.23;;;;;;;18.00;52.17;101534.28;5272097;28;20060;-69
2022/08/13 04:43:22;;;;;;;7.53;3.70;;;;;;;18.02;51.77;101526.19;5266621;28;20046;-69
2022/08/13 04:45:59;;;;;;;7.13;4.00;;;;;;;17.96;52.30;101535.47;5269549;28;20025;-68
2022/08/13 04:48:34;;;;;;;8.40;3.67;;;;;;;17.99;52.18;101534.41;5272451;28;20028;-68
2022/08/13 04:51:05;;;;;;;10.20;4.27;;;;;;;17.90;52.79;101534.19;5270450;28;20028;-69
2022/08/13 04:53:37;;;;;;;10.03;3.70;;;;;;;17.98;52.68;101535.34;5271512;28;20024;-69
2022/08/13 04:56:09;;;;;;;6.93;4.20;;;;;;;17.87;52.91;101531.75;5271708;28;20016;-69
2022/08/13 04:58:40;;;;;;;8.17;4.20;;;;;;;17.99;52.39;101531.75;5270963;28;20492;-68
2022/08/13 05:01:12;;;;;;;6.70;3.77;;;;;;;17.97;52.61;101523.06;5273212;28;20033;-69
2022/08/13 05:03:45;;;;;;;8.03;3.70;;;;;;;18.05;52.28;101539.19;5272155;28;20028;-70
2022/08/13 05:06:19;;;;;;;8.33;3.77;;;;;;;17.90;52.80;101528.88;5272348;28;20032;-69
2022/08/13 05:08:51;;;;;;;10.65;4.20;;;;;;;17.93;53.37;101543.69;5270850;28;20031;-69
2022/08/13 05:11:23;;;;;;;6.97;4.27;;;;;;;18.10;52.90;101546.78;5269901;28;20025;-69
2022/08/13 05:13:54;;;;;;;14.43;3.97;;;;;;;17.90;53.12;101549.22;5270436;28;20037;-69
2022/08/13 05:16:26;;;;;;;6.83;3.87;;;;;;;17.93;53.39;101535.72;5271100;28;20078;-68
2022/08/13 05:18:57;;;;;;;4.40;3.57;;;;;;;18.07;52.85;101545.22;5269459;28;20023;-68
2022/08/13 05:21:29;;;;;;;12.67;4.30;;;;;;;17.98;53.35;101544.16;5268708;28;20480;-69
2022/08/13 05:24:00;;;;;;;7.07;3.70;;;;;;;17.99;53.80;101545.00;5270991;28;20025;-68
2022/08/13 05:26:32;;;;;;;5.70;3.50;;;;;;;18.02;53.73;101550.03;5272562;28;20027;-68
2022/08/13 05:29:04;;;;;;;6.33;4.43;;;;;;;18.16;53.20;101548.09;5272578;28;20059;-68
2022/08/13 05:31:36;;;;;;;10.77;4.43;;;;;;;17.98;54.21;101546.78;5272017;28;20408;-68
2022/08/13 05:34:07;;;;;;;9.83;4.20;;;;;;;18.01;54.15;101551.03;5271271;28;20040;-68
2022/08/13 05:36:42;;;;;;;6.90;4.33;;;;;;;18.07;54.43;101550.50;5270093;28;20103;-68
2022/08/13 05:39:14;;;;;;;10.40;3.93;;;;;;;18.12;54.65;101543.03;5270065;28;20021;-69
2022/08/13 05:41:47;;;;;;;9.77;4.20;;;;;;;18.11;54.63;101546.66;5269811;28;20023;-69
2022/08/13 05:44:21;;;;;;;9.40;4.70;;;;;;;18.08;54.97;101536.28;5270623;28;20624;-68
2022/08/13 05:46:52;;;;;;;7.55;3.75;;;;;;;18.22;54.38;101540.50;5271403;28;20075;-68
2022/08/13 05:49:23;;;;;;;7.57;3.60;;;;;;;18.22;54.60;101543.13;5271588;28;20020;-68
2022/08/13 05:51:54;;;;;;;8.77;3.90;;;;;;;18.37;54.22;101540.22;5271705;28;20542;-68
2022/08/13 05:54:26;;;;;;;10.37;3.97;;;;;;;18.45;54.49;101548.38;5272442;28;20393;-68
2022/08/13 05:56:57;;;;;;;8.20;3.77;;;;;;;18.54;52.90;101552.06;5270638;28;20052;-68
2022/08/13 06:05:08;;;;;;;6.67;3.53;;;;;;;18.67;53.34;101548.41;5271113;28;20036;-69
2022/08/13 06:07:40;;;;;;;12.57;4.07;;;;;;;18.72;54.08;101544.41;5271849;28;20028;-69
2022/08/13 06:10:14;;;;;;;11.37;3.90;;;;;;;18.70;53.87;101545.47;5271692;28;20027;-68
2022/08/13 06:12:47;;;;;;;;;;;;;;;18.93;52.51;101545.34;5272478;28;20090;-69
2022/08/13 06:15:21;;;;;;;9.03;3.70;;;;;;;18.83;54.79;101545.31;5271205;28;20019;-69
2022/08/13 06:17:52;;;;;;;8.67;4.23;;;;;;;18.95;52.52;101546.06;5271930;28;20506;-68
2022/08/13 06:20:24;;;;;;;8.77;4.20;;;;;;;18.97;52.13;101537.00;5270576;28;20103;-69
2022/08/13 06:22:56;;;;;;;8.97;4.20;;;;;;;19.01;52.72;101534.91;5271756;28;20104;-69
2022/08/13 06:25:28;;;;;;;13.33;3.63;;;;;;;19.03;52.76;101530.34;5268995;28;20036;-69
2022/08/13 06:28:00;;;;;;;6.67;3.60;;;;;;;19.10;51.33;101534.16;5271605;28;20029;-68
2022/08/13 06:30:35;;;;;;;8.80;4.17;;;;;;;19.18;51.01;101543.31;5271094;28;20035;-68
2022/08/13 06:33:06;;;;;;;;;;;;;;;19.28;50.46;101548.66;5272212;28;20103;-69
2022/08/13 06:35:38;;;;;;;11.13;4.13;;;;;;;19.31;50.54;101549.22;5269995;28;20452;-69
2022/08/13 06:38:09;;;;;;;11.30;4.67;;;;;;;19.38;50.60;101546.03;5271692;28;20389;-68
2022/08/13 06:40:42;;;;;;;10.80;4.50;;;;;;;19.35;50.91;101539.19;5254791;28;20032;-72
2022/08/13 06:43:16;;;;;;;7.17;3.80;;;;;;;19.39;51.09;101539.75;5244369;28;20037;-70
2022/08/13 06:45:47;;;;;;;13.77;3.88;;;;;;;19.49;50.76;101551.28;5246456;28;20112;-69
2022/08/13 06:48:19;;;;;;;7.97;4.43;;;;;;;19.54;50.71;101554.38;5246354;28;20123;-69
2022/08/13 06:50:50;;;;;;;7.40;3.67;;;;;;;19.60;51.40;101553.00;5247250;28;20108;-69
2022/08/13 06:53:22;;;;;;;10.10;4.57;;;;;;;19.68;50.86;101554.97;5247448;28;20064;-70
2022/08/13 06:55:53;;;;;;;10.93;3.80;;;;;;;19.67;51.33;101542.66;5241809;28;20128;-68
2022/08/13 06:58:29;;;;;;;8.30;4.00;;;;;;;19.79;50.40;101546.88;5249933;28;20043;-68
2022/08/13 07:01:00;;;;;;;10.23;3.70;;;;;;;19.82;50.50;101546.63;5250055;28;20047;-69
2022/08/13 07:03:34;;;;;;;16.50;5.20;;;;;;;19.93;51.04;101552.81;5248519;28;20029;-69
2022/08/13 07:06:14;;;;;;;6.63;3.50;;;;;;;20.01;49.89;101560.94;5248960;28;20075;-68
2022/08/13 07:08:46;;;;;;;9.03;4.00;;;;;;;20.12;50.39;101551.19;5247347;28;20120;-68
2022/08/13 07:11:24;;;;;;;10.93;3.33;;;;;;;20.27;50.22;101555.09;5249999;28;20255;-69
2022/08/13 07:13:57;;;;;;;9.23;3.20;;;;;;;20.37;48.66;101563.09;5247982;28;20071;-69
2022/08/13 07:16:32;;;;;;;10.73;4.05;;;;;;;20.45;48.83;101551.75;5249453;28;20025;-68
2022/08/13 07:19:04;;;;;;;12.40;3.50;;;;;;;20.71;48.15;101551.19;5248715;28;20036;-69
2022/08/13 07:21:36;;;;;;;7.83;3.43;;;;;;;20.82;47.77;101562.66;5247806;28;20025;-69
2022/08/13 07:24:10;;;;;;;7.33;3.17;;;;;;;20.94;47.16;101556.22;5248749;28;20401;-68
2022/08/13 07:26:42;;;;;;;7.15;3.58;;;;;;;21.14;47.58;101550.81;5247955;28;20060;-68
2022/08/13 07:29:14;;;;;;;9.00;3.20;;;;;;;21.33;46.79;101555.25;5249640;28;20013;-69
2022/08/13 07:31:45;;;;;;;6.23;2.87;;;;;;;21.47;46.58;101553.94;5248820;28;20076;-69
2022/08/13 07:34:17;;;;;;;8.07;2.90;;;;;;;21.59;46.60;101565.22;5249007;28;20035;-69
2022/08/13 07:36:54;;;;;;;8.97;3.17;;;;;;;21.62;46.17;101556.13;5250822;28;20045;-68
2022/08/13 07:39:26;;;;;;;4.50;2.30;;;;;;;21.84;45.08;101562.03;5253379;28;20210;-69
2022/08/13 07:41:58;;;;;;;11.77;3.10;;;;;;;21.86;44.89;101560.94;5253751;28;20029;-68
2022/08/13 07:44:30;;;;;;;4.83;2.70;;;;;;;22.06;45.27;101559.97;5253629;28;20485;-68
2022/08/13 07:47:01;;;;;;;4.13;2.33;;;;;;;22.21;45.24;101554.94;5252920;28;20021;-69
2022/08/13 07:49:34;;;;;;;10.13;2.60;;;;;;;22.37;44.74;101559.59;5252051;28;20858;-68
2022/08/13 07:52:07;;;;;;;4.43;2.93;;;;;;;22.60;44.78;101556.44;5254029;28;20029;-68
2022/08/13 07:54:39;;;;;;;8.43;2.93;;;;;;;22.68;44.31;101561.88;5253276;28;20044;-68
2022/08/13 07:57:11;;;;;;;5.13;2.35;;;;;;;22.83;43.38;101555.97;5253952;28;20029;-68
2022/08/13 07:59:42;;;;;;;8.43;2.90;;;;;;;22.91;43.71;101561.38;5252829;28;20036;-68
2022/08/13 08:02:14;;;;;;;5.35;2.13;;;;;;;23.03;43.76;101553.09;5251647;28;20125;-69
2022/08/13 08:04:47;;;;;;;4.60;2.20;;;;;;;23.23;43.35;101560.88;5252929;28;20025;-68
2022/08/13 08:07:18;;;;;;;9.07;2.35;;;;;;;23.37;43.05;101570.16;5253552;28;20482;-68
2022/08/13 08:09:53;;;;;;;6.25;2.08;;;;;;;23.33;41.93;101561.59;5253622;28;20044;-69
2022/08/13 08:12:32;;;;;;;4.50;2.10;;;;;;;23.56;42.63;101561.06;5252846;28;20063;-69
2022/08/13 08:15:08;;;;;;;7.15;2.20;;;;;;;23.73;42.85;101555.75;5251603;28;20033;-68
2022/08/13 08:17:40;;;;;;;10.38;2.60;;;;;;;23.84;41.91;101559.97;5253146;28;20400;-68
2022/08/13 08:20:18;;;;;;;9.20;3.33;;;;;;;23.87;41.68;101557.81;5252215;28;20536;-68
2022/08/13 08:22:50;;;;;;;6.25;2.00;;;;;;;24.25;41.23;101564.59;5252888;28;20032;-69
2022/08/13 08:25:22;;;;;;;5.00;2.03;;;;;;;24.30;40.59;101570.28;5252360;28;20078;-68
2022/08/13 08:27:53;;;;;;;8.77;1.95;;;;;;;24.16;40.30;101566.38;5253202;28;20059;-69
2022/08/13 08:30:25;;;;;;;9.32;1.88;;;;;;;24.38;40.31;101564.94;5252472;28;20021;-69
2022/08/13 08:32:57;;;;;;;4.90;1.50;;;;;;;24.69;40.09;101565.25;5252237;28;20044;-68
2022/08/13 08:35:29;;;;;;;10.52;2.30;;;;;;;24.69;39.76;101565.25;5251702;28;20537;-69
2022/08/13 08:43:42;;;;;;;10.05;2.58;;;;;;;25.01;38.04;101568.94;5251990;28;20446;-68
2022/08/13 08:46:14;;;;;;;13.02;2.65;;;;;;;25.00;38.35;101565.41;5252849;28;20048;-68
2022/08/13 08:48:45;;;;;;;4.50;1.75;;;;;;;25.41;37.94;101568.16;5251857;28;20407;-69
2022/08/13 08:51:20;;;;;;;6.70;1.63;;;;;;;25.44;37.62;101565.13;5251913;28;20032;-68
2022/08/13 08:53:52;;;;;;;5.82;1.95;;;;;;;25.60;37.38;101572.25;5250892;28;20033;-68
2022/08/13 08:56:23;;;;;;;4.80;1.90;;;;;;;25.80;37.72;101567.31;5252131;28;20382;-68
2022/08/13 08:58:57;;;;;;;4.75;2.85;;;;;;;25.69;36.97;101562.34;5252262;28;20040;-68
2022/08/13 09:01:33;;;;;;;3.83;1.83;;;;;;;25.82;36.78;101559.94;5252417;28;20032;-68
2022/08/13 09:04:05;;;;;;;8.05;2.22;;;;;;;25.88;37.34;101568.28;5257132;28;20507;-69
2022/08/13 09:06:37;;;;;;;4.03;1.88;;;;;;;25.88;36.84;101557.56;5272191;28;20028;-73
2022/08/13 09:09:08;;;;;;;9.95;2.05;;;;;;;26.09;37.18;101557.72;5271443;28;20101;-69
2022/08/13 09:11:40;;;;;;;4.05;1.73;;;;;;;26.33;35.64;101555.06;5270469;28;20052;-69
2022/08/13 09:14:12;;;;;;;3.55;1.77;;;;;;;26.01;37.10;101533.66;5271574;28;20029;-70
2022/08/13 09:16:45;;;;;;;7.50;1.70;;;;;;;26.54;35.69;101551.72;5266482;28;20028;-69
2022/08/13 09:19:16;;;;;;;7.83;1.80;;;;;;;26.57;35.41;101548.66;5270437;28;20025;-70
2022/08/13 09:21:49;;;;;;;3.08;1.75;;;;;;;26.93;36.08;101554.38;5271597;28;20532;-70
2022/08/13 09:24:24;;;;;;;5.45;1.50;;;;;;;26.63;34.95;101546.28;5272210;28;20122;-70
2022/08/13 09:26:56;;;;;;;5.47;1.63;;;;;;;26.95;35.45;101546.94;5272780;28;20032;-70
2022/08/13 09:29:27;;;;;;;4.90;1.95;;;;;;;27.05;35.91;101550.22;5270556;28;20120;-70
2022/08/13 09:31:59;;;;;;;5.20;1.63;;;;;;;27.13;34.55;101543.09;5272878;28;20153;-70
2022/08/13 09:34:30;;;;;;;6.55;1.80;;;;;;;27.17;35.37;101550.59;5271908;28;20493;-71
2022/08/13 09:37:02;;;;;;;9.75;2.13;;;;;;;27.22;33.47;101544.66;5272283;28;20033;-71
2022/08/13 09:39:46;;;;;;;9.85;1.60;;;;;;;27.40;34.52;101543.44;5272034;28;20036;-71
2022/08/13 09:42:28;;;;;;;6.60;1.38;;;;;;;27.43;34.47;101543.06;5270732;28;20031;-71
2022/08/13 09:45:00;;;;;;;9.65;1.30;;;;;;;27.72;34.24;101545.91;5272285;28;20028;-70
2022/08/13 09:47:32;;;;;;;7.65;1.70;;;;;;;27.81;33.94;101542.06;5272161;28;20476;-70
2022/08/13 09:50:05;;;;;;;5.75;1.45;;;;;;;27.91;31.83;101533.66;5271173;28;20374;-70
2022/08/13 09:52:37;;;;;;;;;;;;;;;27.77;33.33;101538.09;5272370;28;20095;-71
2022/08/13 09:55:08;;;;;;;5.43;1.25;;;;;;;28.06;31.78;101540.84;5287549;28;20456;-70
2022/08/13 09:57:58;;;;;;;4.85;1.50;;;;;;;28.08;32.37;101533.41;5271825;28;20056;-71
2022/08/13 10:00:31;;;;;;;3.60;1.42;;;;;;;28.17;30.52;101534.97;5269262;28;20032;-70
2022/08/13 10:03:07;;;;;;;5.28;0.98;;;;;;;28.08;30.65;101528.88;5266029;28;20032;-79
2022/08/13 10:05:38;;;;;;;4.05;1.20;;;;;;;28.32;30.04;101525.97;5265433;28;20020;-84
2022/08/13 10:08:16;;;;;;;3.95;1.20;;;;;;;28.50;30.39;101528.22;5270643;28;20017;-77
2022/08/13 10:10:48;;;;;;;3.58;1.00;;;;;;;28.56;30.34;101511.25;5263271;28;20861;-81
2022/08/13 10:13:19;;;;;;;4.05;1.17;;;;;;;28.82;29.46;101506.22;5247443;28;20759;-76
2022/08/13 10:15:50;;;;;;;3.67;1.20;;;;;;;28.52;29.94;101511.84;5250982;28;20036;-77
2022/08/13 10:18:24;;;;;;;3.80;1.10;;;;;;;28.61;28.56;101510.66;5262254;28;20032;-78
2022/08/13 10:20:55;;;;;;;5.30;1.17;;;;;;;28.89;29.00;101512.47;5229366;28;20119;-74
2022/08/13 10:23:26;;;;;;;2.33;1.02;;;;;;;29.03;28.60;101512.59;5229734;28;20600;-75
2022/08/13 10:25:58;;;;;;;6.13;1.20;;;;;;;28.86;28.20;101515.59;5229418;28;20083;-73
2022/08/13 10:28:32;;;;;;;3.22;1.13;;;;;;;28.78;28.73;101502.28;5229817;28;20040;-74
2022/08/13 10:31:08;;;;;;;9.88;1.00;;;;;;;28.87;27.61;101498.38;5229764;28;20060;-75
2022/08/13 10:33:39;;;;;;;5.10;0.88;;;;;;;29.15;28.01;101496.69;5230757;28;20398;-76
2022/08/13 10:36:11;;;;;;;3.70;1.20;;;;;;;29.35;27.10;101504.84;5226983;28;20040;-75
2022/08/13 10:38:42;;;;;;;2.78;1.17;;;;;;;29.64;26.83;101497.47;5229127;28;20112;-76
2022/08/13 10:41:13;;;;;;;2.75;1.02;;;;;;;29.73;26.11;101500.81;5228958;28;20037;-76
2022/08/13 10:43:45;;;;;;;2.05;0.95;;;;;;;29.75;26.69;101503.28;5228981;28;20034;-76
2022/08/13 10:46:17;;;;;;;4.80;0.73;;;;;;;30.26;25.43;101503.78;5230093;28;20104;-75
2022/08/13 10:48:55;;;;;;;2.13;0.80;;;;;;;30.45;25.41;101494.00;5271163;28;20042;-70
2022/08/13 10:51:28;;;;;;;5.78;0.80;;;;;;;30.39;25.82;101492.13;5271239;28;20024;-72
2022/08/13 10:54:00;;;;;;;2.53;0.90;;;;;;;30.49;24.82;101492.53;5271476;28;20017;-70
2022/08/13 10:56:32;;;;;;;4.50;0.88;;;;;;;31.06;25.21;101493.84;5269227;28;20440;-70
2022/08/13 10:59:04;;;;;;;3.13;1.13;;;;;;;31.15;25.86;101492.56;5271469;28;20028;-71
2022/08/13 11:01:35;;;;;;;4.03;0.80;;;;;;;31.37;24.04;101488.69;5270850;28;20044;-71
2022/08/13 11:04:07;;;;;;;4.90;0.98;;;;;;;31.18;24.03;101487.75;5270089;28;20028;-71
2022/08/13 11:06:39;;;;;;;2.85;1.35;;;;;;;31.31;24.48;101487.69;5262718;28;20075;-71
2022/08/13 11:09:10;;;;;;;4.88;1.20;;;;;;;31.89;23.50;101495.88;5250401;28;20025;-70
2022/08/13 11:11:42;;;;;;;2.60;1.08;;;;;;;32.05;23.44;101491.00;5261155;28;20028;-70
2022/08/13 11:14:16;;;;;;;5.82;0.80;;;;;;;32.18;23.17;101493.59;5274980;28;20028;-73
2022/08/13 11:19:25;;;;;;;4.88;0.80;;;;;;;32.22;23.20;101493.97;5253335;28;20033;-74
2022/08/13 11:21:56;;;;;;;8.57;1.05;;;;;;;32.19;23.05;101475.44;5254547;28;20017;-76
2022/08/13 11:24:27;;;;;;;3.35;1.38;;;;;;;32.50;23.20;101476.41;5253950;28;20029;-77
2022/08/13 11:26:59;;;;;;;4.13;1.00;;;;;;;32.37;22.98;101482.78;5235914;28;20024;-74
2022/08/13 11:29:30;;;;;;;3.63;0.90;;;;;;;32.61;22.52;101463.19;5273669;28;20039;-75
2022/08/13 11:32:02;;;;;;;2.72;0.80;;;;;;;32.58;22.79;101476.13;5272988;28;20020;-75
2022/08/13 11:34:33;;;;;;;2.30;0.80;;;;;;;32.50;23.03;101471.00;5271258;28;20743;-74
2022/08/13 11:37:05;;;;;;;5.75;1.00;;;;;;;32.70;23.13;101473.50;5273010;28;20025;-74
2022/08/13 11:39:36;;;;;;;4.25;0.90;;;;;;;32.27;23.91;101463.50;5271549;28;20132;-75
2022/08/13 11:42:07;;;;;;;5.13;0.90;;;;;;;32.68;23.18;101461.19;5272729;28;20025;-73
2022/08/13 11:44:38;;;;;;;2.15;0.75;;;;;;;32.74;22.60;101465.72;5272006;28;20051;-74
2022/08/13 11:47:10;;;;;;;6.07;1.35;;;;;;;32.67;22.70;101451.44;5274719;28;20051;-74
2022/08/13 11:49:41;;;;;;;5.30;0.98;;;;;;;32.74;22.41;101463.03;5272485;28;20040;-74
2022/08/13 11:52:13;;;;;;;3.83;0.90;;;;;;;32.98;22.14;101462.31;5273319;28;20434;-74
2022/08/13 11:54:44;;;;;;;5.25;0.90;;;;;;;33.14;22.13;101469.00;5273130;28;20059;-73
2022/08/13 11:57:15;;;;;;;4.40;1.33;;;;;;;32.82;22.17;101460.00;5273544;28;20035;-76
2022/08/13 11:59:46;;;;;;;3.92;1.00;;;;;;;32.73;22.02;101461.34;5273823;28;20055;-73
2022/08/13 12:02:18;;;;;;;5.15;1.10;;;;;;;32.82;22.44;101465.41;5271481;28;20682;-72
2022/08/13 12:04:49;;;;;;;5.45;1.30;;;;;;;33.24;22.18;101471.16;5258474;28;20119;-70
2022/08/13 12:07:22;;;;;;;1.92;1.08;;;;;;;32.94;22.28;101460.06;5244561;28;20013;-74
2022/08/13 12:09:54;;;;;;;2.67;0.90;;;;;;;32.86;21.56;101463.09;5253196;28;20032;-73
2022/08/13 12:12:26;;;;;;;3.88;0.82;;;;;;;32.78;21.69;101461.50;5271192;28;20044;-72